Time;durP1;ratioP1;P1;durP2;ratioP2;P2;SDS_P1;SDS_P2;PMS_P1;PMS_P2;Temp;Humidity;BMP_temperature;BMP_pressure;BME280_temperature;BME280_humidity;BME280_pressure;Samples;Min_cycle;Max_cycle;Signal;HPM_P1;HPM_P2
2021/10/16 00:00:38;;;;;;;18.90;7.95;;;14.50;93.40;;;;;;5098771;28;20074;-80
2021/10/16 00:03:04;;;;;;;13.00;6.95;;;14.40;93.40;;;;;;5117925;28;20544;-80
2021/10/16 00:05:30;;;;;;;13.85;7.13;;;14.40;93.60;;;;;;5098683;28;20122;-79
2021/10/16 00:07:55;;;;;;;17.75;7.60;;;14.40;93.80;;;;;;5115369;28;20043;-80
2021/10/16 00:10:21;;;;;;;15.57;6.88;;;14.40;93.80;;;;;;5115669;28;20027;-80
2021/10/16 00:12:47;;;;;;;15.77;6.95;;;14.40;93.80;;;;;;5117435;28;20517;-80
2021/10/16 00:15:14;;;;;;;15.63;7.57;;;14.40;93.90;;;;;;5117326;28;20032;-80
2021/10/16 00:17:40;;;;;;;12.73;6.28;;;14.30;93.90;;;;;;5117850;28;20031;-80
2021/10/16 00:20:07;;;;;;;11.55;5.63;;;14.30;94.00;;;;;;5116407;28;20032;-79
2021/10/16 00:22:33;;;;;;;16.42;7.07;;;14.40;94.00;;;;;;5117218;28;20116;-80
2021/10/16 00:24:59;;;;;;;14.45;6.95;;;14.40;94.10;;;;;;5100185;28;20024;-80
2021/10/16 00:27:25;;;;;;;14.75;6.93;;;14.40;94.10;;;;;;5118934;27;20102;-79
2021/10/16 00:29:50;;;;;;;12.02;5.80;;;14.40;94.10;;;;;;5101763;28;20113;-79
2021/10/16 00:32:16;;;;;;;11.57;4.97;;;14.40;94.10;;;;;;5100576;28;20098;-80
2021/10/16 00:34:42;;;;;;;8.98;4.53;;;14.40;94.00;;;;;;5116137;28;20028;-80
2021/10/16 00:37:08;;;;;;;10.80;3.50;;;14.40;94.00;;;;;;5096744;28;20051;-80
2021/10/16 00:39:33;;;;;;;7.03;2.97;;;14.40;93.90;;;;;;5097912;28;20032;-80
2021/10/16 00:41:59;;;;;;;8.77;3.13;;;14.40;93.80;;;;;;5080665;28;20118;-80
2021/10/16 00:44:25;;;;;;;6.25;2.63;;;14.40;93.60;;;;;;5097600;28;20035;-80
2021/10/16 00:46:55;;;;;;;7.15;2.40;;;14.40;93.50;;;;;;5115522;28;20046;-80
2021/10/16 00:49:21;;;;;;;8.20;2.72;;;14.40;93.50;;;;;;5115663;28;20076;-80
2021/10/16 00:51:47;;;;;;;6.63;2.42;;;14.30;93.50;;;;;;5112972;28;20040;-79
2021/10/16 00:54:13;;;;;;;4.22;2.17;;;14.30;93.40;;;;;;5114790;28;20700;-79
2021/10/16 00:56:42;;;;;;;9.13;2.25;;;14.30;93.40;;;;;;5099893;28;20035;-79
2021/10/16 00:59:07;;;;;;;5.05;2.08;;;14.30;93.40;;;;;;5116355;28;20034;-79
2021/10/16 01:01:34;;;;;;;5.97;2.33;;;14.30;93.40;;;;;;5116692;28;20047;-80
2021/10/16 01:04:01;;;;;;;6.47;1.98;;;14.20;93.30;;;;;;5117394;28;20386;-79
2021/10/16 01:06:28;;;;;;;5.10;2.15;;;14.20;93.40;;;;;;5115879;28;20060;-80
2021/10/16 01:08:55;;;;;;;8.75;1.90;;;14.20;93.40;;;;;;5117126;28;20026;-79
2021/10/16 01:11:39;;;;;;;7.97;2.35;;;14.10;93.40;;;;;;5115763;28;20024;-79
2021/10/16 01:14:11;;;;;;;6.60;1.90;;;14.10;93.40;;;;;;5117212;28;20028;-79
2021/10/16 01:16:42;;;;;;;7.50;1.73;;;14.10;93.40;;;;;;5098901;28;20081;-79
2021/10/16 01:19:13;;;;;;;8.32;1.65;;;14.10;93.40;;;;;;5114963;28;20053;-79
2021/10/16 01:21:50;;;;;;;5.40;1.60;;;14.10;93.40;;;;;;5117468;28;20070;-79
2021/10/16 01:24:17;;;;;;;6.75;2.00;;;14.10;93.50;;;;;;5115533;28;20024;-80
2021/10/16 01:26:46;;;;;;;5.60;1.73;;;14.10;93.40;;;;;;5118212;28;20049;-79
2021/10/16 01:29:16;;;;;;;8.13;1.83;;;14.00;93.40;;;;;;5115534;28;20496;-79
2021/10/16 01:31:42;;;;;;;8.27;1.80;;;14.10;93.50;;;;;;5114752;28;20053;-79
2021/10/16 01:34:08;;;;;;;6.38;1.98;;;14.10;93.50;;;;;;5113318;28;20068;-79
2021/10/16 01:36:45;;;;;;;7.45;1.73;;;14.00;93.50;;;;;;5113183;28;20481;-79
2021/10/16 01:39:12;;;;;;;5.15;1.92;;;14.00;93.60;;;;;;5114226;27;20493;-79
2021/10/16 01:41:38;;;;;;;6.30;1.95;;;14.00;93.50;;;;;;5096529;28;20051;-79
2021/10/16 01:44:04;;;;;;;;;;;14.00;93.50;;;;;;5114798;28;20055;-79
2021/10/16 01:46:30;;;;;;;6.77;2.10;;;14.00;93.60;;;;;;5114982;28;19978;-81
2021/10/16 01:48:56;;;;;;;6.43;1.88;;;14.00;93.40;;;;;;5098108;28;20034;-80
2021/10/16 01:51:21;;;;;;;7.25;2.08;;;13.90;93.60;;;;;;5096193;28;20031;-81
2021/10/16 01:53:47;;;;;;;8.20;2.10;;;13.90;93.50;;;;;;5092448;28;20048;-81
2021/10/16 01:56:13;;;;;;;6.72;1.65;;;13.90;93.60;;;;;;5113145;28;20066;-81
2021/10/16 01:58:39;;;;;;;7.22;1.67;;;13.90;93.60;;;;;;5113508;28;20074;-81
2021/10/16 02:01:04;;;;;;;3.95;1.42;;;13.90;93.70;;;;;;5112656;28;20477;-80
2021/10/16 02:03:30;;;;;;;6.43;1.75;;;13.90;93.70;;;;;;5112231;28;20035;-81
2021/10/16 02:05:56;;;;;;;7.93;2.28;;;13.90;93.70;;;;;;5095111;28;20421;-81
2021/10/16 02:08:21;;;;;;;5.88;1.73;;;13.90;93.70;;;;;;5113558;28;20033;-81
2021/10/16 02:10:47;;;;;;;9.02;1.98;;;13.90;93.80;;;;;;5095226;28;20028;-81
2021/10/16 02:13:13;;;;;;;4.22;1.40;;;13.80;93.80;;;;;;5077092;28;20122;-81
2021/10/16 02:15:39;;;;;;;5.10;1.45;;;13.90;93.90;;;;;;5111015;28;20028;-81
2021/10/16 02:18:05;;;;;;;7.65;1.75;;;13.90;93.90;;;;;;5094297;28;20512;-80
2021/10/16 02:20:31;;;;;;;4.80;1.50;;;13.80;93.90;;;;;;5094195;28;20038;-80
2021/10/16 02:22:56;;;;;;;7.22;1.83;;;13.80;93.90;;;;;;5094173;28;20024;-81
2021/10/16 02:25:22;;;;;;;6.18;1.65;;;13.80;93.90;;;;;;5112847;28;20024;-81
2021/10/16 02:27:48;;;;;;;7.65;1.70;;;13.90;94.00;;;;;;5113549;28;20059;-81
2021/10/16 02:30:14;;;;;;;5.63;2.05;;;13.80;94.00;;;;;;5113642;28;20224;-80
2021/10/16 02:32:40;;;;;;;7.20;1.77;;;13.90;94.00;;;;;;5094310;28;20055;-81
2021/10/16 02:35:06;;;;;;;7.50;1.70;;;13.90;94.00;;;;;;5111804;28;20032;-81
2021/10/16 02:37:32;;;;;;;7.03;1.60;;;13.90;94.00;;;;;;5111541;28;20401;-81
2021/10/16 02:39:57;;;;;;;5.75;1.73;;;13.90;94.00;;;;;;5094539;28;20119;-82
2021/10/16 02:42:23;;;;;;;4.65;1.70;;;13.80;93.90;;;;;;5095294;28;20040;-81
2021/10/16 02:44:49;;;;;;;5.90;1.98;;;13.80;93.90;;;;;;5078659;28;20051;-81
2021/10/16 02:47:15;;;;;;;5.35;1.60;;;13.80;93.90;;;;;;5096289;28;20028;-81
2021/10/16 02:49:41;;;;;;;9.65;1.55;;;13.80;94.00;;;;;;5111668;28;20190;-81
2021/10/16 02:52:07;;;;;;;7.60;1.50;;;13.80;94.00;;;;;;5110925;28;20180;-81
2021/10/16 02:54:33;;;;;;;4.38;1.90;;;13.80;94.00;;;;;;5094588;28;20031;-81
2021/10/16 02:56:58;;;;;;;6.13;1.83;;;13.80;94.00;;;;;;5113168;28;20110;-81
2021/10/16 02:59:24;;;;;;;4.68;1.50;;;13.80;94.00;;;;;;5116512;28;20118;-81
2021/10/16 03:01:50;;;;;;;5.75;2.20;;;13.70;94.00;;;;;;5083110;28;20393;-81
2021/10/16 03:04:15;;;;;;;3.83;1.58;;;13.70;94.00;;;;;;5117821;28;20040;-81
2021/10/16 03:06:41;;;;;;;5.88;1.75;;;13.70;94.10;;;;;;5099557;28;20057;-81
2021/10/16 03:09:07;;;;;;;8.52;2.47;;;13.70;94.10;;;;;;5082999;28;20035;-81
2021/10/16 03:11:32;;;;;;;6.63;1.75;;;13.70;94.10;;;;;;5117602;28;20024;-80
2021/10/16 03:14:01;;;;;;;4.93;2.13;;;13.70;94.10;;;;;;5100009;28;20039;-81
2021/10/16 03:16:28;;;;;;;5.90;1.60;;;13.70;94.10;;;;;;5101967;28;20031;-81
2021/10/16 03:18:54;;;;;;;5.25;1.80;;;13.70;94.10;;;;;;5118026;28;20127;-81
2021/10/16 03:21:20;;;;;;;5.60;1.88;;;13.70;94.10;;;;;;5118403;28;20445;-81
2021/10/16 03:23:47;;;;;;;5.07;1.77;;;13.80;94.10;;;;;;5100861;28;20425;-81
2021/10/16 03:26:12;;;;;;;6.47;1.90;;;13.70;94.10;;;;;;5116338;28;20373;-81
2021/10/16 03:28:38;;;;;;;5.85;1.60;;;13.80;94.20;;;;;;5114915;28;20176;-81
2021/10/16 03:31:04;;;;;;;7.05;1.88;;;13.80;94.20;;;;;;5080833;28;20063;-81
2021/10/16 03:33:30;;;;;;;5.88;1.75;;;13.80;94.20;;;;;;5114300;28;20414;-80
2021/10/16 03:35:55;;;;;;;4.95;1.83;;;13.80;94.10;;;;;;5114500;28;20081;-81
2021/10/16 03:38:21;;;;;;;6.57;2.20;;;13.80;94.10;;;;;;5115246;28;20024;-81
2021/10/16 03:40:47;;;;;;;5.22;1.80;;;13.90;94.10;;;;;;5114547;28;20027;-82
2021/10/16 03:43:13;;;;;;;5.25;1.63;;;13.90;94.00;;;;;;5097374;28;20031;-80
2021/10/16 03:45:38;;;;;;;7.80;2.20;;;13.90;94.00;;;;;;5097484;28;20028;-81
2021/10/16 03:48:04;;;;;;;9.02;2.13;;;13.80;94.00;;;;;;5079995;28;20042;-81
2021/10/16 03:50:32;;;;;;;4.38;2.13;;;13.90;94.00;;;;;;5113743;28;20096;-81
2021/10/16 03:52:58;;;;;;;5.65;1.75;;;13.80;94.00;;;;;;5113337;28;20402;-81
2021/10/16 03:55:24;;;;;;;6.95;2.00;;;13.80;94.00;;;;;;5113598;28;20041;-81
2021/10/16 03:57:51;;;;;;;7.10;2.17;;;13.80;94.00;;;;;;5079976;28;20027;-81
2021/10/16 04:00:19;;;;;;;7.80;2.00;;;13.80;94.10;;;;;;5097371;28;20028;-81
2021/10/16 04:02:47;;;;;;;7.78;2.30;;;13.70;94.10;;;;;;5113501;28;20024;-81
2021/10/16 04:05:14;;;;;;;6.75;2.00;;;13.70;94.10;;;;;;5113293;28;20031;-81
2021/10/16 04:07:40;;;;;;;5.90;2.17;;;13.70;94.10;;;;;;5113108;28;20028;-81
2021/10/16 04:10:07;;;;;;;7.40;2.47;;;13.60;94.20;;;;;;5112827;28;20035;-81
2021/10/16 04:12:33;;;;;;;7.30;2.13;;;13.60;94.20;;;;;;5096265;28;20028;-81
2021/10/16 04:14:58;;;;;;;7.20;2.20;;;13.60;94.30;;;;;;5114375;28;20077;-81
2021/10/16 04:17:24;;;;;;;8.52;3.03;;;13.50;94.30;;;;;;5079497;28;20034;-81
2021/10/16 04:19:50;;;;;;;6.70;2.63;;;13.50;94.40;;;;;;5096269;28;20110;-81
2021/10/16 04:22:16;;;;;;;8.98;2.03;;;13.50;94.40;;;;;;5113089;28;20055;-81
2021/10/16 04:24:42;;;;;;;7.57;2.50;;;13.50;94.40;;;;;;5112890;28;20035;-81
2021/10/16 04:27:08;;;;;;;6.80;2.05;;;13.50;94.40;;;;;;5114469;28;20355;-80
2021/10/16 04:29:33;;;;;;;7.88;2.38;;;13.50;94.50;;;;;;5113171;28;20102;-81
2021/10/16 04:31:59;;;;;;;7.97;2.50;;;13.50;94.40;;;;;;5112858;28;20108;-81
2021/10/16 04:34:25;;;;;;;8.15;2.53;;;13.60;94.50;;;;;;5112994;28;20114;-81
2021/10/16 04:36:53;;;;;;;7.22;1.88;;;13.60;94.50;;;;;;5096338;28;20089;-81
2021/10/16 04:39:18;;;;;;;5.97;2.00;;;13.60;94.50;;;;;;5096009;28;20323;-81
2021/10/16 04:41:44;;;;;;;8.90;2.35;;;13.60;94.50;;;;;;5096000;28;20430;-81
2021/10/16 04:44:10;;;;;;;7.45;2.13;;;13.60;94.40;;;;;;5113393;28;20031;-81
2021/10/16 04:46:37;;;;;;;10.85;2.33;;;13.60;94.40;;;;;;5113482;28;20035;-81
2021/10/16 04:49:06;;;;;;;8.10;2.30;;;13.60;94.40;;;;;;5096907;28;20032;-81
2021/10/16 04:51:32;;;;;;;7.82;2.42;;;13.70;94.40;;;;;;5096869;28;20066;-80
2021/10/16 04:53:58;;;;;;;6.22;2.35;;;13.70;94.40;;;;;;5113413;28;20044;-81
2021/10/16 04:56:24;;;;;;;7.97;2.20;;;13.60;94.30;;;;;;5115063;28;20416;-80
2021/10/16 04:58:50;;;;;;;8.23;2.38;;;13.60;94.30;;;;;;5097277;28;20035;-81
2021/10/16 05:01:15;;;;;;;5.32;2.00;;;13.50;94.30;;;;;;5079867;28;20169;-81
2021/10/16 05:03:41;;;;;;;7.88;2.03;;;13.50;94.30;;;;;;5096641;28;20477;-81
2021/10/16 05:06:07;;;;;;;8.52;2.40;;;13.40;94.30;;;;;;5113906;28;20470;-81
2021/10/16 05:08:35;;;;;;;6.93;2.30;;;13.40;94.30;;;;;;5114010;28;20035;-80
2021/10/16 05:11:01;;;;;;;8.30;2.10;;;13.30;94.40;;;;;;5114383;28;20441;-80
2021/10/16 05:13:27;;;;;;;6.00;2.25;;;13.30;94.40;;;;;;5112977;28;20023;-80
2021/10/16 05:15:53;;;;;;;7.97;2.47;;;13.30;94.50;;;;;;5112862;28;20030;-81
2021/10/16 05:18:21;;;;;;;7.65;2.85;;;13.20;94.40;;;;;;5096224;28;20504;-80
2021/10/16 05:20:48;;;;;;;7.57;2.40;;;13.20;94.40;;;;;;5112832;28;20094;-80
2021/10/16 05:23:14;;;;;;;5.22;2.17;;;13.10;94.40;;;;;;5112176;28;20034;-81
2021/10/16 05:25:40;;;;;;;5.85;2.25;;;13.00;94.40;;;;;;5094781;28;20028;-81
2021/10/16 05:28:06;;;;;;;8.32;2.53;;;12.90;94.50;;;;;;5111635;28;20035;-81
2021/10/16 05:30:31;;;;;;;5.65;2.20;;;12.80;94.60;;;;;;5077884;28;20082;-81
2021/10/16 05:32:57;;;;;;;5.93;2.45;;;12.60;94.60;;;;;;5094358;28;20481;-81
2021/10/16 05:35:23;;;;;;;6.47;2.50;;;12.60;94.80;;;;;;5094437;28;20070;-82
2021/10/16 05:37:49;;;;;;;6.25;3.15;;;12.50;94.90;;;;;;5112929;28;20565;-81
2021/10/16 05:40:14;;;;;;;7.68;2.90;;;12.50;95.00;;;;;;5113068;28;20034;-82
2021/10/16 05:42:40;;;;;;;7.88;2.83;;;12.40;95.00;;;;;;5111303;28;20028;-81
2021/10/16 05:45:06;;;;;;;7.85;2.08;;;12.40;95.10;;;;;;5077319;28;20394;-81
2021/10/16 05:47:32;;;;;;;11.40;2.55;;;12.30;95.10;;;;;;5094305;28;20494;-81
2021/10/16 05:49:58;;;;;;;11.02;2.45;;;12.30;95.30;;;;;;5111144;28;20393;-82
2021/10/16 05:52:24;;;;;;;9.98;2.75;;;12.20;95.30;;;;;;5094070;28;20048;-81
2021/10/16 05:54:49;;;;;;;9.20;3.13;;;12.20;95.40;;;;;;5094170;28;20032;-80
2021/10/16 05:57:15;;;;;;;7.50;2.30;;;12.20;95.50;;;;;;5094439;28;20028;-80
2021/10/16 05:59:41;;;;;;;8.63;3.03;;;12.10;95.50;;;;;;5111406;28;20061;-81
2021/10/16 06:02:10;;;;;;;8.10;2.45;;;12.10;95.50;;;;;;5111013;28;20027;-81
2021/10/16 06:04:35;;;;;;;7.28;2.80;;;12.10;95.60;;;;;;5111080;28;20149;-80
2021/10/16 06:07:01;;;;;;;7.88;2.97;;;12.00;95.60;;;;;;5077174;28;20115;-80
2021/10/16 06:09:27;;;;;;;8.35;2.85;;;12.00;95.70;;;;;;5077191;28;20123;-81
2021/10/16 06:11:52;;;;;;;8.55;2.50;;;12.00;95.80;;;;;;5077159;28;20035;-80
2021/10/16 06:14:18;;;;;;;12.23;4.82;;;12.00;95.80;;;;;;5076843;28;20065;-80
2021/10/16 06:16:44;;;;;;;9.70;3.17;;;11.90;95.80;;;;;;5076972;28;20038;-80
2021/10/16 06:19:09;;;;;;;10.27;3.15;;;11.90;95.90;;;;;;5093595;28;20097;-80
2021/10/16 06:21:35;;;;;;;9.40;3.03;;;11.90;95.90;;;;;;5093738;28;20035;-80
2021/10/16 06:24:01;;;;;;;8.10;2.60;;;11.90;95.90;;;;;;5093296;28;20055;-80
2021/10/16 06:26:27;;;;;;;8.60;3.42;;;11.80;96.00;;;;;;5110596;28;20418;-80
2021/10/16 06:28:52;;;;;;;6.57;2.95;;;11.80;96.00;;;;;;5110713;28;20425;-80
2021/10/16 06:31:18;;;;;;;11.23;3.30;;;11.70;96.00;;;;;;5111507;28;20024;-80
2021/10/16 06:33:44;;;;;;;10.73;3.22;;;11.80;96.10;;;;;;5110325;28;20043;-80
2021/10/16 06:36:09;;;;;;;9.20;4.82;;;11.70;96.10;;;;;;5076645;28;20043;-80
2021/10/16 06:38:35;;;;;;;9.68;3.25;;;11.70;96.20;;;;;;5076363;28;20452;-80
2021/10/16 06:41:02;;;;;;;7.57;2.80;;;11.70;96.20;;;;;;5076526;28;20435;-81
2021/10/16 06:43:29;;;;;;;7.95;3.78;;;11.70;96.10;;;;;;5077055;28;20493;-80
2021/10/16 06:45:54;;;;;;;6.15;2.63;;;11.60;96.10;;;;;;5110690;28;20032;-80
2021/10/16 06:48:20;;;;;;;4.53;1.92;;;11.60;96.10;;;;;;5110484;28;20026;-80
2021/10/16 06:50:46;;;;;;;6.30;2.65;;;11.60;96.10;;;;;;5110268;28;20062;-80
2021/10/16 06:53:12;;;;;;;7.57;2.25;;;11.50;96.10;;;;;;5110105;28;20402;-80
2021/10/16 06:55:38;;;;;;;8.07;3.30;;;11.50;96.10;;;;;;5092911;28;20031;-80
2021/10/16 06:58:04;;;;;;;6.50;2.38;;;11.50;96.10;;;;;;5076629;28;20469;-81
2021/10/16 07:00:29;;;;;;;7.07;2.72;;;11.40;96.00;;;;;;5110215;28;20034;-80
2021/10/16 07:02:55;;;;;;;7.88;2.83;;;11.40;96.00;;;;;;5093038;28;20080;-80
2021/10/16 07:05:21;;;;;;;5.43;2.50;;;11.40;96.10;;;;;;5093696;28;20027;-80
2021/10/16 07:07:47;;;;;;;8.07;3.40;;;11.40;96.10;;;;;;5111274;28;20067;-80
2021/10/16 07:10:12;;;;;;;9.02;3.15;;;11.40;96.20;;;;;;5112372;28;20027;-80
2021/10/16 07:12:38;;;;;;;7.90;2.97;;;11.50;96.20;;;;;;5112574;28;20454;-81
2021/10/16 07:15:05;;;;;;;8.43;3.85;;;11.50;96.20;;;;;;5093523;28;20059;-80
2021/10/16 07:17:30;;;;;;;;;;;11.60;96.30;;;;;;5094059;28;20112;-79
2021/10/16 07:19:56;;;;;;;10.75;3.20;;;11.60;96.20;;;;;;5093084;28;20341;-80
2021/10/16 07:22:22;;;;;;;9.05;3.40;;;11.70;96.20;;;;;;5093430;28;20031;-80
2021/10/16 07:24:48;;;;;;;9.60;3.25;;;11.70;96.30;;;;;;5109788;28;20401;-79
2021/10/16 07:27:15;;;;;;;5.75;2.70;;;11.90;96.40;;;;;;5093163;28;20023;-79
2021/10/16 07:29:41;;;;;;;7.60;3.53;;;12.00;96.50;;;;;;5110042;28;20032;-80
2021/10/16 07:32:07;;;;;;;13.82;4.03;;;12.20;96.60;;;;;;5109725;28;20156;-81
2021/10/16 07:34:32;;;;;;;8.90;3.38;;;12.40;96.50;;;;;;5109694;28;20035;-80
2021/10/16 07:36:59;;;;;;;7.82;3.10;;;12.60;96.40;;;;;;5109708;28;20503;-79
2021/10/16 07:39:25;;;;;;;7.00;3.00;;;12.70;96.30;;;;;;5075716;28;20172;-80
2021/10/16 07:41:50;;;;;;;9.05;3.08;;;12.90;96.20;;;;;;5092701;28;20152;-79
2021/10/16 07:44:16;;;;;;;10.50;3.22;;;13.00;96.30;;;;;;5112922;28;20103;-79
2021/10/16 07:46:43;;;;;;;6.15;2.67;;;13.20;96.30;;;;;;5096456;28;20028;-81
2021/10/16 07:49:10;;;;;;;6.97;2.60;;;13.40;96.10;;;;;;5113001;28;20063;-79
2021/10/16 07:51:36;;;;;;;10.98;2.60;;;13.50;95.80;;;;;;5112795;28;20023;-80
2021/10/16 07:54:02;;;;;;;9.40;3.20;;;13.50;95.60;;;;;;5112764;28;20067;-79
2021/10/16 07:56:27;;;;;;;6.57;2.90;;;13.50;95.40;;;;;;5112962;28;20065;-79
2021/10/16 07:58:53;;;;;;;7.13;2.60;;;13.50;95.40;;;;;;5112930;28;20043;-80
2021/10/16 08:01:19;;;;;;;6.85;3.10;;;13.50;95.50;;;;;;5112871;28;20450;-80
2021/10/16 08:03:45;;;;;;;5.65;2.55;;;13.60;95.50;;;;;;5095726;28;20062;-80
2021/10/16 08:06:10;;;;;;;8.55;2.60;;;13.60;95.50;;;;;;5095652;28;20032;-80
2021/10/16 08:08:36;;;;;;;7.13;2.15;;;13.70;95.50;;;;;;5112661;28;20393;-80
2021/10/16 08:11:03;;;;;;;5.07;2.30;;;13.80;95.60;;;;;;5095119;28;20034;-81
2021/10/16 08:13:30;;;;;;;7.28;2.28;;;14.00;95.80;;;;;;5113805;28;20105;-81
2021/10/16 08:15:56;;;;;;;5.90;2.42;;;14.30;95.80;;;;;;5095715;28;20466;-80
2021/10/16 08:18:22;;;;;;;7.00;2.70;;;14.60;95.60;;;;;;5112205;28;20055;-81
2021/10/16 08:20:48;;;;;;;;;;;14.80;95.40;;;;;;5112909;28;20020;-81
2021/10/16 08:23:14;;;;;;;7.50;3.35;;;15.00;95.30;;;;;;5113658;28;20425;-79
2021/10/16 08:25:40;;;;;;;9.23;3.45;;;15.30;95.10;;;;;;5095252;28;20036;-80
2021/10/16 08:28:14;;;;;;;8.73;2.75;;;15.50;95.10;;;;;;5095711;28;20027;-80
2021/10/16 08:30:43;;;;;;;6.93;2.67;;;16.00;95.40;;;;;;5095255;28;20118;-80
2021/10/16 08:33:09;;;;;;;6.75;2.70;;;16.90;95.50;;;;;;5112200;28;20027;-80
2021/10/16 08:35:35;;;;;;;5.50;2.47;;;17.80;94.90;;;;;;5111804;28;20556;-81
2021/10/16 08:38:01;;;;;;;8.38;2.55;;;18.40;94.10;;;;;;5095039;28;20035;-80
2021/10/16 08:40:27;;;;;;;6.05;2.15;;;18.90;93.30;;;;;;5112362;28;20046;-79
2021/10/16 08:42:53;;;;;;;6.45;2.58;;;19.20;92.10;;;;;;5094896;28;20046;-80
2021/10/16 08:45:19;;;;;;;5.38;2.28;;;19.30;91.40;;;;;;5112257;28;20336;-80
2021/10/16 08:47:46;;;;;;;6.18;1.98;;;19.10;90.90;;;;;;5112614;28;20023;-81
2021/10/16 08:50:12;;;;;;;6.00;2.35;;;19.10;90.70;;;;;;5112256;28;20034;-81
2021/10/16 08:52:38;;;;;;;;;;;19.00;90.50;;;;;;5114132;28;20119;-80
2021/10/16 08:55:07;;;;;;;4.97;2.17;;;18.80;90.80;;;;;;5093499;28;20006;-80
2021/10/16 08:57:35;;;;;;;6.30;2.03;;;18.70;90.50;;;;;;5094974;28;20068;-80
2021/10/16 09:00:41;;;;;;;7.45;2.00;;;18.50;90.60;;;;;;5095418;28;20024;-81
2021/10/16 09:03:17;;;;;;;8.70;2.25;;;18.40;90.20;;;;;;5111043;28;20404;-80
2021/10/16 09:06:10;;;;;;;5.65;1.80;;;18.20;90.00;;;;;;5111403;28;20023;-80
2021/10/16 09:09:12;;;;;;;4.63;1.77;;;18.10;90.00;;;;;;5113027;28;20031;-80
2021/10/16 09:11:40;;;;;;;5.45;1.90;;;17.90;90.00;;;;;;5113183;28;20130;-81
2021/10/16 09:14:06;;;;;;;6.15;1.73;;;17.90;90.10;;;;;;5111332;28;20027;-79
2021/10/16 09:16:40;;;;;;;6.78;2.10;;;18.00;90.10;;;;;;5109313;28;20031;-81
2021/10/16 09:19:12;;;;;;;6.53;2.10;;;17.90;89.40;;;;;;5094030;28;20486;-78
2021/10/16 09:22:03;;;;;;;10.05;2.05;;;17.90;89.60;;;;;;5099963;28;20020;-81
2021/10/16 09:24:35;;;;;;;7.72;2.13;;;17.70;89.40;;;;;;5087036;28;20060;-76
2021/10/16 09:27:09;;;;;;;6.95;2.30;;;17.60;89.40;;;;;;5094590;28;20632;-78
2021/10/16 09:29:44;;;;;;;9.05;2.05;;;17.50;89.50;;;;;;5100765;28;20028;-78
2021/10/16 09:32:12;;;;;;;5.50;2.30;;;17.50;89.30;;;;;;5098284;28;20032;-79
2021/10/16 09:34:43;;;;;;;4.72;1.77;;;17.50;89.40;;;;;;5107326;28;20016;-78
2021/10/16 09:37:09;;;;;;;6.10;2.20;;;17.50;88.90;;;;;;5111460;28;20488;-77
2021/10/16 09:39:38;;;;;;;5.38;1.65;;;17.50;89.00;;;;;;5109568;28;20028;-77
2021/10/16 09:42:06;;;;;;;10.43;2.38;;;17.60;88.60;;;;;;5099387;28;20024;-77
2021/10/16 09:44:34;;;;;;;4.40;2.13;;;17.60;88.80;;;;;;5092992;28;20028;-76
2021/10/16 09:47:04;;;;;;;6.85;2.40;;;17.70;88.70;;;;;;5109999;28;20024;-77
2021/10/16 09:49:54;;;;;;;4.55;1.80;;;17.70;88.40;;;;;;5096286;28;20024;-77
2021/10/16 09:52:20;;;;;;;6.03;1.90;;;17.90;88.40;;;;;;5097706;28;20505;-76
2021/10/16 09:54:48;;;;;;;5.75;1.95;;;18.00;88.10;;;;;;5105433;28;20030;-77
2021/10/16 09:57:19;;;;;;;5.85;1.65;;;18.10;87.60;;;;;;5104574;28;20491;-78
2021/10/16 09:59:45;;;;;;;5.35;1.70;;;18.20;87.00;;;;;;5066457;28;20098;-76
2021/10/16 10:02:12;;;;;;;6.32;1.80;;;18.30;86.90;;;;;;5094936;28;20036;-76
2021/10/16 10:04:46;;;;;;;6.78;1.70;;;18.40;86.20;;;;;;5081419;28;20035;-78
2021/10/16 10:07:13;;;;;;;6.32;1.92;;;18.40;85.20;;;;;;5100119;28;20105;-75
2021/10/16 10:09:41;;;;;;;5.00;1.90;;;18.40;85.10;;;;;;5099786;28;20015;-76
2021/10/16 10:12:11;;;;;;;5.70;1.77;;;18.20;84.60;;;;;;5105506;28;20030;-79
2021/10/16 10:14:49;;;;;;;5.75;1.65;;;18.00;84.60;;;;;;5094020;28;20032;-78
2021/10/16 10:17:34;;;;;;;3.90;1.65;;;17.80;84.50;;;;;;5095982;28;20074;-77
2021/10/16 10:20:07;;;;;;;9.18;2.13;;;17.60;84.50;;;;;;5091213;28;20028;-78
2021/10/16 10:22:35;;;;;;;8.70;2.00;;;17.50;85.20;;;;;;5101615;28;20020;-76
2021/10/16 10:25:02;;;;;;;8.45;2.13;;;17.40;85.50;;;;;;5107903;28;20111;-78
2021/10/16 10:27:40;;;;;;;7.97;1.85;;;17.40;85.60;;;;;;5104095;28;20020;-77
2021/10/16 10:30:07;;;;;;;7.32;2.08;;;17.30;85.60;;;;;;5105399;28;20073;-79
2021/10/16 10:32:32;;;;;;;7.90;2.25;;;17.20;85.80;;;;;;5089006;28;20470;-80
2021/10/16 10:35:01;;;;;;;4.97;1.80;;;17.20;86.20;;;;;;5095961;28;20036;-75
2021/10/16 10:37:42;;;;;;;6.18;1.70;;;17.20;86.70;;;;;;5108675;28;20032;-77
2021/10/16 10:40:23;;;;;;;6.90;1.85;;;17.10;86.20;;;;;;5094029;28;20124;-79
2021/10/16 10:42:56;;;;;;;6.15;1.77;;;17.10;86.30;;;;;;5107059;28;20035;-76
2021/10/16 10:45:31;;;;;;;12.30;2.40;;;17.20;86.30;;;;;;5104943;28;20042;-77
2021/10/16 10:48:00;;;;;;;5.25;1.65;;;17.20;86.40;;;;;;5091919;28;20158;-75
2021/10/16 10:50:49;;;;;;;9.18;2.30;;;17.20;86.30;;;;;;5100936;28;20382;-78
2021/10/16 10:53:41;;;;;;;8.95;2.05;;;17.30;86.60;;;;;;5099382;28;20055;-76
2021/10/16 10:56:10;;;;;;;8.10;2.00;;;17.40;86.10;;;;;;5098640;28;20047;-78
2021/10/16 10:58:52;;;;;;;5.10;1.98;;;17.40;85.70;;;;;;5095494;28;20169;-78
2021/10/16 11:01:43;;;;;;;5.80;2.28;;;17.50;85.70;;;;;;5094914;28;20547;-79
2021/10/16 11:04:10;;;;;;;5.72;2.00;;;17.50;85.70;;;;;;5091990;28;20020;-79
2021/10/16 11:06:36;;;;;;;6.75;1.80;;;17.60;85.80;;;;;;5091691;28;20058;-79
2021/10/16 11:09:17;;;;;;;;;;;17.70;85.90;;;;;;5077106;28;20100;-79
2021/10/16 11:11:47;;;;;;;6.70;1.50;;;17.80;86.20;;;;;;5092514;28;20377;-80
2021/10/16 11:14:12;;;;;;;5.85;1.95;;;18.10;85.70;;;;;;5091417;28;20060;-82
2021/10/16 11:17:02;;;;;;;6.97;1.90;;;18.20;85.30;;;;;;5087997;28;20055;-79
2021/10/16 11:19:29;;;;;;;7.00;1.92;;;18.40;85.00;;;;;;5110446;28;20104;-80
2021/10/16 11:21:57;;;;;;;;;;;18.50;84.60;;;;;;5089913;28;20023;-79
2021/10/16 11:24:24;;;;;;;6.50;1.60;;;18.60;84.60;;;;;;5109595;28;19946;-81
2021/10/16 11:26:52;;;;;;;5.03;1.77;;;18.70;84.20;;;;;;5110271;28;20024;-79
2021/10/16 11:29:36;;;;;;;5.65;1.67;;;18.70;83.70;;;;;;5098875;28;20524;-78
2021/10/16 11:32:21;;;;;;;5.85;1.63;;;18.80;83.30;;;;;;5104812;28;20068;-77
2021/10/16 11:35:04;;;;;;;5.88;1.48;;;18.80;82.80;;;;;;5103602;28;20031;-77
2021/10/16 11:37:40;;;;;;;7.00;1.73;;;18.80;83.00;;;;;;5110573;28;20436;-80
2021/10/16 11:40:11;;;;;;;;;;;18.80;83.60;;;;;;5097455;28;20494;-79
2021/10/16 11:42:38;;;;;;;4.32;1.40;;;18.80;83.40;;;;;;5099948;28;19972;-77
2021/10/16 11:45:13;;;;;;;7.40;1.83;;;18.70;82.90;;;;;;5098471;28;20070;-79
2021/10/16 11:47:41;;;;;;;6.82;1.98;;;18.70;82.70;;;;;;5113341;27;20079;-80
2021/10/16 11:50:17;;;;;;;6.38;1.92;;;18.60;82.70;;;;;;5103912;28;20054;-82
2021/10/16 11:52:51;;;;;;;6.65;2.10;;;18.60;83.00;;;;;;5093795;28;20127;-82
2021/10/16 11:55:23;;;;;;;9.10;2.15;;;18.70;83.20;;;;;;5102610;28;20052;-81
2021/10/16 11:57:50;;;;;;;6.18;1.80;;;18.70;83.30;;;;;;5072195;28;20027;-81
2021/10/16 12:00:18;;;;;;;10.85;2.17;;;18.70;83.30;;;;;;5111446;28;20067;-76
2021/10/16 12:02:45;;;;;;;5.18;1.75;;;18.70;83.40;;;;;;5100234;28;20026;-81
2021/10/16 12:05:11;;;;;;;7.78;1.77;;;18.60;83.40;;;;;;5080226;28;20425;-80
2021/10/16 12:07:37;;;;;;;6.85;2.20;;;18.50;83.60;;;;;;5099718;28;20023;-81
2021/10/16 12:10:19;;;;;;;6.93;1.95;;;18.40;83.80;;;;;;5070373;28;20438;-81
2021/10/16 12:12:55;;;;;;;10.38;3.08;;;18.30;84.10;;;;;;5087908;28;20469;-80
2021/10/16 12:15:21;;;;;;;7.50;2.65;;;18.20;84.20;;;;;;5109627;28;20020;-78
2021/10/16 12:17:47;;;;;;;7.32;2.40;;;18.10;84.50;;;;;;5084179;28;20562;-80
2021/10/16 12:20:13;;;;;;;8.80;4.13;;;18.00;85.00;;;;;;5099681;28;20101;-78
2021/10/16 12:23:01;;;;;;;13.35;3.17;;;17.90;85.40;;;;;;5079099;28;20028;-79
2021/10/16 12:25:29;;;;;;;9.95;2.40;;;17.80;86.00;;;;;;5102813;28;20015;-78
2021/10/16 12:28:03;;;;;;;8.45;2.83;;;17.80;86.20;;;;;;5097755;28;20046;-78
2021/10/16 12:30:29;;;;;;;7.00;2.80;;;17.80;86.60;;;;;;5077325;28;20081;-79
2021/10/16 12:33:10;;;;;;;;;;;17.80;86.80;;;;;;5103705;28;20032;-78
2021/10/16 12:35:36;;;;;;;9.25;2.65;;;17.80;86.80;;;;;;5096764;28;19947;-74
2021/10/16 12:38:03;;;;;;;7.75;2.25;;;17.80;86.80;;;;;;5115276;28;20073;-79
2021/10/16 12:40:40;;;;;;;8.10;2.22;;;17.80;87.00;;;;;;5115450;28;20545;-82
2021/10/16 12:43:06;;;;;;;9.07;3.38;;;17.90;87.60;;;;;;5114231;28;20463;-78
2021/10/16 12:45:40;;;;;;;7.15;2.42;;;17.90;87.60;;;;;;5116103;28;20465;-80
2021/10/16 12:48:34;;;;;;;6.28;2.60;;;18.10;87.50;;;;;;5116117;28;20115;-79
2021/10/16 12:51:02;;;;;;;7.65;2.60;;;18.10;87.20;;;;;;5115612;28;20044;-82
2021/10/16 12:53:52;;;;;;;7.07;2.42;;;18.10;87.20;;;;;;5114156;28;20048;-80